Time;durP1;ratioP1;P1;durP2;ratioP2;P2;SDS_P1;SDS_P2;PMS_P1;PMS_P2;Temp;Humidity;BMP_temperature;BMP_pressure;BME280_temperature;BME280_humidity;BME280_pressure;Samples;Min_cycle;Max_cycle;Signal;HPM_P1;HPM_P2
2021/01/30 05:45:55;;;;;;;14.45;3.17;;;;;;;;;;6221624;22;884292;-85
2021/01/30 05:48:25;;;;;;;19.85;4.18;;;;;;;;;;6242882;23;20054;-84
2021/01/30 05:51:17;;;;;;;14.45;3.25;;;;;;;;;;6241306;23;20459;-85
2021/01/30 05:53:44;;;;;;;15.90;3.15;;;;;;;;;;6194672;23;20465;-85
2021/01/30 05:56:10;;;;;;;32.53;8.65;;;;;;;;;;6230208;23;20434;-85
2021/01/30 05:58:39;;;;;;;21.48;4.72;;;;;;;;;;6211336;23;20013;-85
2021/01/30 06:01:17;;;;;;;13.30;3.95;;;;;;;;;;6208436;23;20031;-85
2021/01/30 06:03:54;;;;;;;21.13;4.90;;;;;;;;;;6212194;23;20008;-85
2021/01/30 06:06:21;;;;;;;20.42;4.25;;;;;;;;;;6211106;23;20036;-85
2021/01/30 06:09:00;;;;;;;12.18;3.05;;;;;;;;;;6212885;23;20434;-86
2021/01/30 06:11:26;;;;;;;20.58;3.50;;;;;;;;;;6213011;23;20013;-85
2021/01/30 06:13:57;;;;;;;19.45;4.65;;;;;;;;;;6210772;23;20009;-86
2021/01/30 06:16:40;;;;;;;26.10;4.63;;;;;;;;;;6211048;23;20009;-86
2021/01/30 06:19:10;;;;;;;16.73;4.28;;;;;;;;;;6213042;23;20009;-86
2021/01/30 06:21:36;;;;;;;13.55;3.50;;;;;;;;;;6212932;23;20001;-85
2021/01/30 06:24:01;;;;;;;19.20;4.20;;;;;;;;;;6210575;23;20100;-84
2021/01/30 06:26:27;;;;;;;22.77;4.63;;;;;;;;;;6210910;23;20009;-85
2021/01/30 06:29:01;;;;;;;19.60;3.72;;;;;;;;;;6211221;23;20008;-85
2021/01/30 06:31:27;;;;;;;20.08;3.88;;;;;;;;;;6211469;23;20092;-85
2021/01/30 06:34:11;;;;;;;18.05;4.88;;;;;;;;;;6210950;23;20001;-85
2021/01/30 06:36:37;;;;;;;19.80;4.72;;;;;;;;;;6211121;23;20001;-87
2021/01/30 06:39:05;;;;;;;19.85;4.18;;;;;;;;;;6211372;23;20012;-85
2021/01/30 06:41:32;;;;;;;17.67;4.00;;;;;;;;;;6212626;23;20035;-84
2021/01/30 06:44:09;;;;;;;14.60;4.15;;;;;;;;;;6212148;23;20367;-85
2021/01/30 06:46:55;;;;;;;15.43;3.92;;;;;;;;;;6212443;23;20008;-85
2021/01/30 06:49:20;;;;;;;16.05;6.38;;;;;;;;;;6212402;23;20004;-85
2021/01/30 06:51:46;;;;;;;25.23;6.55;;;;;;;;;;6213023;23;20000;-85
2021/01/30 06:54:18;;;;;;;19.15;4.88;;;;;;;;;;6212125;23;20127;-85
2021/01/30 06:56:44;;;;;;;22.83;4.80;;;;;;;;;;6212553;23;20312;-85
2021/01/30 06:59:21;;;;;;;23.00;7.65;;;;;;;;;;6211091;23;20063;-85
2021/01/30 07:01:48;;;;;;;17.65;5.35;;;;;;;;;;6211099;23;20009;-84
2021/01/30 07:04:33;;;;;;;29.77;8.75;;;;;;;;;;6212915;23;20001;-85
2021/01/30 07:06:58;;;;;;;42.30;11.05;;;;;;;;;;6211065;23;20005;-85
2021/01/30 07:09:31;;;;;;;34.20;10.65;;;;;;;;;;6211031;23;20316;-85
2021/01/30 07:12:10;;;;;;;55.83;16.33;;;;;;;;;;6213007;23;20001;-84
2021/01/30 07:17:11;;;;;;;39.67;12.27;;;;;;;;;;5119832;27;20354;-85
2021/01/30 07:19:42;;;;;;;26.05;9.77;;;;;;;;;;5085678;28;20024;-85
2021/01/30 07:22:13;;;;;;;24.98;10.02;;;;;;;;;;5091619;28;20134;-86
2021/01/30 07:24:49;;;;;;;20.23;6.88;;;;;;;;;;5085306;28;20048;-85
2021/01/30 07:27:14;;;;;;;22.65;6.28;;;;;;;;;;5109803;28;20033;-86
2021/01/30 07:29:59;;;;;;;26.92;4.90;;;;;;;;;;5106101;28;20054;-85
2021/01/30 07:32:31;;;;;;;16.50;4.70;;;;;;;;;;5102507;28;20027;-85
2021/01/30 07:35:03;;;;;;;22.33;5.07;;;;;;;;;;5106393;28;20073;-86
2021/01/30 07:37:31;;;;;;;18.27;5.07;;;;;;;;;;5094840;28;20024;-86
2021/01/30 07:39:57;;;;;;;11.30;4.28;;;;;;;;;;5095191;28;20023;-86
2021/01/30 07:42:22;;;;;;;16.33;4.18;;;;;;;;;;5090134;28;20535;-85
2021/01/30 07:44:48;;;;;;;22.20;4.93;;;;;;;;;;5104847;28;20121;-85
2021/01/30 07:47:21;;;;;;;22.73;5.45;;;;;;;;;;5090026;28;20054;-85
2021/01/30 07:49:51;;;;;;;17.83;5.72;;;;;;;;;;5105473;28;20063;-85
2021/01/30 07:52:24;;;;;;;17.50;5.70;;;;;;;;;;5107333;28;20032;-86
2021/01/30 07:54:55;;;;;;;20.27;5.15;;;;;;;;;;5091811;28;20047;-85
2021/01/30 07:57:51;;;;;;;22.08;3.80;;;;;;;;;;5084299;28;20039;-85
2021/01/30 08:00:16;;;;;;;13.88;4.82;;;;;;;;;;5087209;28;20040;-85
2021/01/30 08:02:50;;;;;;;22.10;5.18;;;;;;;;;;5086753;28;20024;-86
2021/01/30 08:05:20;;;;;;;18.35;4.93;;;;;;;;;;5091908;28;20442;-85
2021/01/30 08:07:48;;;;;;;26.20;10.60;;;;;;;;;;5086636;28;20067;-85
2021/01/30 08:10:19;;;;;;;35.80;15.25;;;;;;;;;;5091673;28;20059;-85
2021/01/30 08:12:53;;;;;;;31.48;11.88;;;;;;;;;;5084590;28;20063;-86
2021/01/30 08:15:23;;;;;;;60.55;23.25;;;;;;;;;;5077957;28;20064;-85
2021/01/30 08:17:58;;;;;;;66.43;30.30;;;;;;;;;;5079789;28;20064;-85
2021/01/30 08:20:33;;;;;;;58.53;24.33;;;;;;;;;;5095814;28;20052;-85
2021/01/30 08:22:59;;;;;;;33.13;16.08;;;;;;;;;;5081490;28;20479;-85
2021/01/30 08:25:34;;;;;;;44.08;16.77;;;;;;;;;;5094913;28;20028;-85
2021/01/30 08:28:06;;;;;;;36.67;12.63;;;;;;;;;;5070438;28;20495;-83
2021/01/30 08:30:42;;;;;;;26.70;7.70;;;;;;;;;;5062899;28;20032;-83
2021/01/30 08:33:08;;;;;;;18.42;5.72;;;;;;;;;;5064683;28;20545;-83
2021/01/30 08:35:39;;;;;;;18.38;6.75;;;;;;;;;;5067889;28;20489;-83
2021/01/30 08:38:05;;;;;;;14.15;5.00;;;;;;;;;;5062119;28;20381;-83
2021/01/30 08:40:46;;;;;;;15.43;5.03;;;;;;;;;;5068334;28;20009;-83
2021/01/30 08:43:41;;;;;;;19.40;5.65;;;;;;;;;;5073672;28;20499;-83
2021/01/30 08:46:16;;;;;;;11.43;3.55;;;;;;;;;;5063426;28;20093;-83
2021/01/30 08:48:41;;;;;;;26.02;6.25;;;;;;;;;;5078410;28;20048;-83
2021/01/30 08:51:17;;;;;;;20.55;5.60;;;;;;;;;;5068913;28;20032;-83
2021/01/30 08:53:43;;;;;;;19.85;5.88;;;;;;;;;;5070803;28;20091;-81
2021/01/30 08:56:08;;;;;;;22.75;6.78;;;;;;;;;;5072312;28;20024;-81
2021/01/30 08:58:37;;;;;;;33.95;8.82;;;;;;;;;;5072941;28;20488;-82
2021/01/30 09:01:09;;;;;;;24.40;6.03;;;;;;;;;;5069827;28;20047;-81
2021/01/30 09:03:36;;;;;;;26.95;6.35;;;;;;;;;;5083209;28;20047;-83
2021/01/30 09:06:01;;;;;;;22.05;6.03;;;;;;;;;;5087660;28;20459;-82
2021/01/30 09:08:33;;;;;;;14.73;4.90;;;;;;;;;;5079456;28;20032;-82
2021/01/30 09:11:18;;;;;;;13.20;4.22;;;;;;;;;;5084203;28;20454;-82
2021/01/30 09:14:04;;;;;;;17.38;4.15;;;;;;;;;;5085466;28;20028;-82
2021/01/30 09:16:35;;;;;;;13.70;4.00;;;;;;;;;;5074097;28;20025;-82
2021/01/30 09:19:02;;;;;;;22.95;5.85;;;;;;;;;;5084483;28;20016;-82
2021/01/30 09:21:31;;;;;;;16.08;4.38;;;;;;;;;;5083634;28;20027;-82
2021/01/30 09:24:16;;;;;;;9.63;3.60;;;;;;;;;;5090023;28;20012;-82
2021/01/30 09:26:48;;;;;;;13.32;3.10;;;;;;;;;;5080995;28;20034;-82
2021/01/30 09:29:17;;;;;;;11.80;2.85;;;;;;;;;;5087053;28;20495;-82
2021/01/30 09:31:43;;;;;;;9.80;2.35;;;;;;;;;;5082730;28;20054;-82
2021/01/30 09:34:16;;;;;;;16.25;3.47;;;;;;;;;;5090754;28;20091;-82
2021/01/30 09:36:44;;;;;;;14.25;3.53;;;;;;;;;;5071597;28;20059;-83
2021/01/30 09:39:21;;;;;;;8.35;2.80;;;;;;;;;;5072323;28;20433;-82
2021/01/30 09:41:46;;;;;;;12.52;2.55;;;;;;;;;;5077399;28;20017;-82
2021/01/30 09:44:25;;;;;;;11.30;2.40;;;;;;;;;;5079123;28;20083;-81
2021/01/30 09:46:55;;;;;;;13.68;2.10;;;;;;;;;;5086175;28;20020;-82
2021/01/30 09:49:24;;;;;;;6.32;2.53;;;;;;;;;;5074313;28;20059;-82
2021/01/30 09:51:50;;;;;;;9.55;2.63;;;;;;;;;;5079890;28;20027;-82
2021/01/30 09:54:18;;;;;;;8.00;2.08;;;;;;;;;;5086107;28;20109;-82
2021/01/30 09:56:44;;;;;;;7.93;1.80;;;;;;;;;;5075972;28;20028;-82
2021/01/30 09:59:12;;;;;;;7.18;2.85;;;;;;;;;;5081150;28;20016;-82
2021/01/30 10:01:45;;;;;;;9.85;3.00;;;;;;;;;;5076274;28;20054;-82
2021/01/30 10:04:14;;;;;;;5.07;1.50;;;;;;;;;;5072979;28;20036;-82
2021/01/30 10:06:39;;;;;;;7.85;1.63;;;;;;;;;;5079211;28;20027;-82
2021/01/30 10:09:08;;;;;;;7.32;1.60;;;;;;;;;;5073100;28;20028;-82
2021/01/30 10:11:35;;;;;;;9.30;2.38;;;;;;;;;;5080529;28;20024;-82
2021/01/30 10:14:01;;;;;;;5.80;1.55;;;;;;;;;;5076651;28;20055;-80
2021/01/30 10:16:27;;;;;;;6.35;1.70;;;;;;;;;;5079405;28;20047;-80
2021/01/30 10:18:58;;;;;;;5.38;1.50;;;;;;;;;;5075457;28;20040;-81
2021/01/30 10:21:40;;;;;;;5.45;1.98;;;;;;;;;;5065127;28;20078;-81
2021/01/30 10:24:35;;;;;;;4.10;1.58;;;;;;;;;;5074981;28;20389;-81
2021/01/30 10:27:12;;;;;;;6.20;1.83;;;;;;;;;;5058962;28;20035;-81
2021/01/30 10:29:38;;;;;;;6.50;1.83;;;;;;;;;;5072506;28;20043;-81
2021/01/30 10:32:08;;;;;;;5.13;1.60;;;;;;;;;;5073893;28;20016;-81
2021/01/30 10:34:42;;;;;;;5.60;1.60;;;;;;;;;;5082349;28;20024;-81
2021/01/30 10:37:10;;;;;;;5.10;1.40;;;;;;;;;;5072182;28;20035;-81
2021/01/30 10:39:39;;;;;;;5.60;2.03;;;;;;;;;;5063267;28;20044;-81
2021/01/30 10:42:13;;;;;;;5.70;2.13;;;;;;;;;;5074732;28;20055;-81
2021/01/30 10:44:43;;;;;;;3.63;1.40;;;;;;;;;;5065119;28;20043;-81
2021/01/30 10:47:09;;;;;;;6.18;1.77;;;;;;;;;;5068754;28;20063;-81
2021/01/30 10:49:36;;;;;;;11.07;1.80;;;;;;;;;;5062935;28;20131;-81
2021/01/30 10:52:10;;;;;;;5.20;1.77;;;;;;;;;;5069877;28;20033;-81
2021/01/30 10:54:36;;;;;;;9.35;1.92;;;;;;;;;;5071818;28;20028;-81
2021/01/30 10:57:08;;;;;;;6.07;2.05;;;;;;;;;;5066117;28;20512;-85
2021/01/30 10:59:44;;;;;;;8.85;5.40;;;;;;;;;;5074861;28;20480;-82
2021/01/30 11:02:28;;;;;;;14.55;3.63;;;;;;;;;;5077425;28;20047;-82
2021/01/30 11:05:03;;;;;;;6.10;2.38;;;;;;;;;;5065740;28;20440;-81
2021/01/30 11:07:38;;;;;;;7.82;2.60;;;;;;;;;;5088519;28;20047;-82
2021/01/30 11:10:04;;;;;;;8.93;2.00;;;;;;;;;;5085746;28;20358;-82
2021/01/30 11:12:30;;;;;;;7.03;2.47;;;;;;;;;;5080840;28;20047;-82
2021/01/30 11:14:56;;;;;;;6.60;2.15;;;;;;;;;;5073225;28;20473;-81
2021/01/30 11:19:42;;;;;;;5.20;2.03;;;;;;;;;;5094791;27;20445;-83
2021/01/30 11:22:20;;;;;;;9.77;3.67;;;;;;;;;;5093773;28;20028;-84
2021/01/30 11:24:48;;;;;;;14.07;3.88;;;;;;;;;;5092288;28;20108;-83
2021/01/30 11:27:32;;;;;;;6.97;2.15;;;;;;;;;;5076375;28;20430;-83
2021/01/30 11:29:58;;;;;;;9.90;2.58;;;;;;;;;;5085665;28;20033;-83
2021/01/30 11:32:24;;;;;;;6.70;1.92;;;;;;;;;;5074891;28;20016;-83
2021/01/30 11:34:59;;;;;;;7.22;2.40;;;;;;;;;;5067180;28;20523;-83
2021/01/30 11:37:26;;;;;;;7.28;2.03;;;;;;;;;;5071906;28;20054;-81
2021/01/30 11:39:51;;;;;;;7.63;1.98;;;;;;;;;;5075227;28;20667;-80
2021/01/30 11:42:17;;;;;;;8.82;2.13;;;;;;;;;;5071198;28;20025;-82
2021/01/30 11:44:43;;;;;;;9.43;2.63;;;;;;;;;;5069034;28;20690;-82
2021/01/30 11:47:08;;;;;;;6.82;2.13;;;;;;;;;;5069812;28;20048;-79
2021/01/30 11:49:34;;;;;;;8.90;2.20;;;;;;;;;;5066569;28;20504;-82
2021/01/30 11:52:00;;;;;;;6.50;1.73;;;;;;;;;;5070021;28;20544;-82
2021/01/30 11:54:25;;;;;;;5.15;2.20;;;;;;;;;;5068234;28;20025;-82
2021/01/30 11:56:51;;;;;;;5.97;1.90;;;;;;;;;;5067712;28;20135;-83
2021/01/30 11:59:17;;;;;;;6.60;1.60;;;;;;;;;;5066819;28;20013;-83
2021/01/30 12:01:42;;;;;;;5.45;1.75;;;;;;;;;;5063250;28;20027;-84
2021/01/30 12:04:09;;;;;;;5.75;2.55;;;;;;;;;;5067326;28;20021;-83
2021/01/30 12:06:34;;;;;;;7.32;2.72;;;;;;;;;;5065858;28;20055;-84
2021/01/30 12:09:00;;;;;;;5.88;1.80;;;;;;;;;;5064222;28;20025;-83
2021/01/30 12:11:26;;;;;;;4.38;1.52;;;;;;;;;;5064383;28;19917;-83
2021/01/30 12:13:52;;;;;;;4.00;1.50;;;;;;;;;;5073076;28;20043;-83
2021/01/30 12:16:20;;;;;;;7.20;2.30;;;;;;;;;;5067851;28;20024;-83
2021/01/30 12:18:45;;;;;;;6.63;2.03;;;;;;;;;;5063233;28;20076;-83
2021/01/30 12:21:11;;;;;;;8.63;2.47;;;;;;;;;;5073586;28;20027;-83
2021/01/30 12:23:37;;;;;;;4.85;1.70;;;;;;;;;;5065956;28;20254;-84
2021/01/30 12:26:03;;;;;;;5.43;1.77;;;;;;;;;;5075862;28;20100;-82
2021/01/30 12:28:33;;;;;;;5.60;1.40;;;;;;;;;;5068155;28;20496;-85
2021/01/30 12:30:58;;;;;;;5.03;1.45;;;;;;;;;;5050791;28;20108;-84
2021/01/30 12:33:24;;;;;;;6.35;2.22;;;;;;;;;;5051287;28;20100;-83
2021/01/30 12:35:50;;;;;;;5.22;1.50;;;;;;;;;;5047197;28;20036;-83
2021/01/30 12:38:16;;;;;;;8.38;1.95;;;;;;;;;;5051040;28;20111;-83
2021/01/30 12:40:43;;;;;;;4.78;1.30;;;;;;;;;;5049849;28;20056;-83
2021/01/30 12:43:10;;;;;;;10.68;4.78;;;;;;;;;;5054430;28;20625;-83
2021/01/30 12:45:36;;;;;;;22.60;11.50;;;;;;;;;;5051428;28;20028;-81
2021/01/30 12:48:02;;;;;;;11.82;6.90;;;;;;;;;;5052893;28;20358;-82
2021/01/30 12:50:28;;;;;;;7.13;2.80;;;;;;;;;;5062671;28;20501;-82
2021/01/30 12:52:54;;;;;;;6.88;2.42;;;;;;;;;;5057861;28;20489;-83
2021/01/30 12:55:20;;;;;;;5.72;1.80;;;;;;;;;;5049975;28;20029;-82
2021/01/30 12:57:46;;;;;;;6.97;2.05;;;;;;;;;;5054554;28;20512;-80
2021/01/30 13:00:16;;;;;;;5.80;2.00;;;;;;;;;;5053803;28;20063;-82
2021/01/30 13:02:41;;;;;;;6.97;2.25;;;;;;;;;;5057391;28;20123;-82
2021/01/30 13:05:08;;;;;;;6.15;1.90;;;;;;;;;;5063452;28;20029;-81
2021/01/30 13:07:34;;;;;;;4.20;1.30;;;;;;;;;;5068277;28;20040;-80
2021/01/30 13:10:00;;;;;;;4.03;1.48;;;;;;;;;;5068379;28;20024;-81
2021/01/30 13:12:25;;;;;;;4.07;1.88;;;;;;;;;;5065960;28;20084;-81
2021/01/30 13:14:51;;;;;;;11.23;6.07;;;;;;;;;;5061589;28;20017;-79
2021/01/30 13:17:17;;;;;;;9.90;5.25;;;;;;;;;;5061246;28;20021;-82
2021/01/30 13:19:44;;;;;;;5.70;2.97;;;;;;;;;;5062036;28;20025;-82
2021/01/30 13:24:27;;;;;;;6.90;3.20;;;;;;;;;;5108739;27;20367;-82
2021/01/30 13:26:53;;;;;;;6.03;2.25;;;;;;;;;;5088699;28;20455;-81
2021/01/30 13:29:19;;;;;;;6.25;2.63;;;;;;;;;;5082376;28;20025;-81
2021/01/30 13:31:46;;;;;;;5.32;2.80;;;;;;;;;;5088395;28;20056;-82
2021/01/30 13:34:12;;;;;;;2.97;1.52;;;;;;;;;;5079562;28;21041;-82
2021/01/30 13:36:38;;;;;;;4.97;1.73;;;;;;;;;;5075585;28;20029;-82
2021/01/30 13:39:04;;;;;;;2.90;1.77;;;;;;;;;;5076439;28;20043;-83
2021/01/30 13:41:31;;;;;;;3.38;2.50;;;;;;;;;;5079259;28;20508;-80
2021/01/30 13:43:56;;;;;;;4.25;2.40;;;;;;;;;;5076915;28;20031;-82
2021/01/30 13:46:22;;;;;;;2.67;1.60;;;;;;;;;;5084055;28;20028;-83
2021/01/30 13:48:48;;;;;;;2.95;1.50;;;;;;;;;;5080554;28;20080;-84
2021/01/30 13:53:32;;;;;;;3.13;1.33;;;;;;;;;;5101691;27;20416;-85
2021/01/30 13:55:58;;;;;;;2.40;0.85;;;;;;;;;;5093065;28;20032;-82
2021/01/30 13:58:24;;;;;;;3.70;1.00;;;;;;;;;;5090339;28;20050;-83
2021/01/30 14:00:50;;;;;;;2.95;1.17;;;;;;;;;;5089482;28;20028;-82
2021/01/30 14:03:16;;;;;;;2.88;1.48;;;;;;;;;;5095363;28;20035;-83
2021/01/30 14:05:41;;;;;;;2.45;1.05;;;;;;;;;;5094403;28;20408;-83
2021/01/30 14:08:07;;;;;;;4.90;2.13;;;;;;;;;;5095074;28;20016;-82
2021/01/30 14:10:33;;;;;;;3.28;1.63;;;;;;;;;;5093398;28;20100;-84
2021/01/30 14:13:00;;;;;;;4.13;2.33;;;;;;;;;;5094289;28;20376;-83
2021/01/30 14:15:25;;;;;;;5.55;2.65;;;;;;;;;;5094630;28;20485;-84
2021/01/30 14:17:51;;;;;;;3.70;2.35;;;;;;;;;;5095854;28;20078;-84
2021/01/30 14:20:17;;;;;;;4.93;2.97;;;;;;;;;;5095265;28;20046;-84
2021/01/30 14:22:43;;;;;;;4.10;2.53;;;;;;;;;;5094676;28;20028;-83
2021/01/30 14:25:09;;;;;;;3.97;1.88;;;;;;;;;;5090020;28;20081;-84
2021/01/30 14:27:34;;;;;;;3.25;1.85;;;;;;;;;;5090448;28;20024;-83
2021/01/30 14:32:19;;;;;;;7.10;3.45;;;;;;;;;;5106341;27;20438;-83
2021/01/30 14:34:45;;;;;;;6.88;3.45;;;;;;;;;;5095501;28;20033;-83
2021/01/30 14:37:10;;;;;;;4.00;1.40;;;;;;;;;;5096733;28;20016;-83
2021/01/30 14:39:36;;;;;;;4.85;1.85;;;;;;;;;;5092433;28;20020;-83
2021/01/30 14:42:02;;;;;;;5.00;2.50;;;;;;;;;;5086494;28;20070;-84
2021/01/30 14:44:28;;;;;;;4.50;2.22;;;;;;;;;;5085951;28;20504;-83
2021/01/30 14:46:53;;;;;;;4.70;1.80;;;;;;;;;;5092199;28;20017;-83
2021/01/30 14:49:19;;;;;;;4.82;2.00;;;;;;;;;;5091885;28;20025;-82
2021/01/30 14:51:45;;;;;;;3.72;2.22;;;;;;;;;;5089941;28;20020;-83
2021/01/30 14:54:12;;;;;;;5.18;2.67;;;;;;;;;;5090404;28;20032;-83
2021/01/30 14:56:37;;;;;;;4.25;1.95;;;;;;;;;;5084094;28;20028;-82
2021/01/30 14:59:03;;;;;;;3.38;1.73;;;;;;;;;;5084477;28;20472;-83
2021/01/30 15:01:29;;;;;;;10.50;6.90;;;;;;;;;;5090114;28;20103;-83
2021/01/30 15:03:54;;;;;;;7.05;4.28;;;;;;;;;;5088467;28;20020;-82
2021/01/30 15:06:20;;;;;;;5.63;2.92;;;;;;;;;;5088724;28;20093;-83
2021/01/30 15:08:46;;;;;;;9.60;4.38;;;;;;;;;;5084599;28;20548;-82
2021/01/30 15:11:11;;;;;;;13.82;7.30;;;;;;;;;;5081756;28;20030;-82
2021/01/30 15:13:37;;;;;;;10.13;5.25;;;;;;;;;;5080454;28;20111;-82
2021/01/30 15:16:03;;;;;;;6.32;2.20;;;;;;;;;;5085701;28;20034;-82
2021/01/30 15:18:29;;;;;;;6.47;3.60;;;;;;;;;;5084948;28;20027;-82
2021/01/30 15:20:54;;;;;;;10.82;7.10;;;;;;;;;;5084837;28;20039;-83
2021/01/30 15:23:20;;;;;;;34.30;20.98;;;;;;;;;;5083012;28;20020;-82
2021/01/30 15:25:46;;;;;;;64.35;35.70;;;;;;;;;;5083288;28;20133;-83
2021/01/30 15:28:11;;;;;;;53.70;30.35;;;;;;;;;;5080480;28;20039;-83
2021/01/30 15:30:37;;;;;;;45.15;28.88;;;;;;;;;;5085194;28;20044;-83
2021/01/30 15:35:23;;;;;;;17.92;12.10;;;;;;;;;;5102757;27;20353;-82
2021/01/30 15:37:49;;;;;;;12.40;7.88;;;;;;;;;;5081559;28;20027;-83
2021/01/30 15:40:15;;;;;;;11.60;5.97;;;;;;;;;;5076892;28;20056;-83
2021/01/30 15:42:41;;;;;;;12.45;6.45;;;;;;;;;;5078070;28;20024;-83
2021/01/30 15:45:07;;;;;;;10.82;7.57;;;;;;;;;;5084334;28;20026;-84
2021/01/30 15:47:32;;;;;;;11.77;6.70;;;;;;;;;;5077554;28;20036;-84
2021/01/30 15:49:58;;;;;;;10.02;5.35;;;;;;;;;;5082809;28;20043;-84
2021/01/30 15:52:25;;;;;;;6.20;3.30;;;;;;;;;;5084142;28;20096;-84
2021/01/30 15:54:51;;;;;;;6.07;2.83;;;;;;;;;;5080982;28;20103;-81
2021/01/30 15:57:17;;;;;;;6.22;2.92;;;;;;;;;;5077556;28;20397;-82
2021/01/30 15:59:42;;;;;;;11.40;3.00;;;;;;;;;;5084362;28;20026;-82
2021/01/30 16:02:08;;;;;;;6.85;3.92;;;;;;;;;;5079767;28;20111;-82
2021/01/30 16:04:34;;;;;;;6.88;3.17;;;;;;;;;;5082938;28;20028;-82
2021/01/30 16:06:59;;;;;;;5.38;3.35;;;;;;;;;;5078247;28;20033;-82
2021/01/30 16:11:44;;;;;;;4.05;2.35;;;;;;;;;;5120550;27;20858;-82
2021/01/30 16:14:13;;;;;;;5.88;3.75;;;;;;;;;;5108640;28;20020;-81
2021/01/30 16:16:39;;;;;;;9.20;5.97;;;;;;;;;;5085586;28;20028;-83
2021/01/30 16:19:05;;;;;;;10.65;7.00;;;;;;;;;;5087810;28;20436;-83
2021/01/30 16:21:33;;;;;;;8.45;4.80;;;;;;;;;;5091094;28;20028;-85
2021/01/30 16:23:59;;;;;;;6.03;3.25;;;;;;;;;;5087953;28;20383;-85
2021/01/30 16:26:25;;;;;;;7.22;4.28;;;;;;;;;;5081017;28;20031;-84
2021/01/30 16:28:50;;;;;;;8.90;5.45;;;;;;;;;;5080667;28;21299;-85
2021/01/30 16:31:16;;;;;;;5.55;3.50;;;;;;;;;;5079567;28;20032;-83
2021/01/30 16:33:42;;;;;;;6.82;4.13;;;;;;;;;;5080991;28;20131;-83
2021/01/30 16:36:07;;;;;;;4.20;1.98;;;;;;;;;;5078795;28;20012;-84
2021/01/30 16:38:33;;;;;;;3.45;2.05;;;;;;;;;;5081902;28;20043;-83
2021/01/30 16:40:59;;;;;;;24.80;12.40;;;;;;;;;;5086763;28;20024;-83
2021/01/30 16:43:25;;;;;;;11.88;7.25;;;;;;;;;;5080435;28;20032;-83
2021/01/30 16:45:51;;;;;;;10.45;5.93;;;;;;;;;;5084745;28;20039;-83
2021/01/30 16:48:17;;;;;;;9.13;5.82;;;;;;;;;;5080047;28;20075;-83
2021/01/30 16:50:42;;;;;;;8.65;7.75;;;;;;;;;;5078720;28;20071;-82
2021/01/30 16:53:08;;;;;;;5.40;3.38;;;;;;;;;;5080263;28;20029;-84
2021/01/30 16:55:34;;;;;;;10.63;6.88;;;;;;;;;;5083074;28;20032;-83
2021/01/30 16:58:00;;;;;;;10.63;4.97;;;;;;;;;;5081359;28;20058;-83
2021/01/30 17:00:27;;;;;;;5.55;3.72;;;;;;;;;;5084161;28;20582;-84
2021/01/30 17:02:53;;;;;;;6.30;3.63;;;;;;;;;;5093015;28;20477;-84
2021/01/30 17:05:19;;;;;;;4.13;2.88;;;;;;;;;;5081470;28;20039;-83
2021/01/30 17:07:45;;;;;;;3.47;2.15;;;;;;;;;;5085910;28;20051;-82
2021/01/30 17:10:11;;;;;;;3.78;2.45;;;;;;;;;;5087568;28;20035;-83
2021/01/30 17:12:37;;;;;;;4.78;2.65;;;;;;;;;;5080783;28;20047;-84
2021/01/30 17:15:03;;;;;;;3.50;2.40;;;;;;;;;;5085595;28;20026;-83
2021/01/30 17:17:29;;;;;;;7.22;2.50;;;;;;;;;;5085228;28;20059;-84
2021/01/30 17:19:56;;;;;;;15.27;8.85;;;;;;;;;;5091244;28;20062;-84
2021/01/30 17:22:21;;;;;;;11.20;7.15;;;;;;;;;;5071684;28;20021;-84
2021/01/30 17:24:47;;;;;;;9.88;5.00;;;;;;;;;;5071199;28;20038;-82
2021/01/30 17:27:13;;;;;;;6.15;3.50;;;;;;;;;;5069195;28;20096;-82
2021/01/30 17:29:38;;;;;;;6.95;3.97;;;;;;;;;;5069487;28;20536;-83
2021/01/30 17:32:04;;;;;;;7.82;4.47;;;;;;;;;;5072708;28;20020;-83
2021/01/30 17:34:31;;;;;;;13.63;8.75;;;;;;;;;;5071133;28;20433;-84
2021/01/30 17:36:58;;;;;;;14.88;9.52;;;;;;;;;;5074674;28;20526;-84
2021/01/30 17:39:24;;;;;;;22.67;12.70;;;;;;;;;;5066915;28;20021;-83
2021/01/30 17:41:49;;;;;;;25.02;14.35;;;;;;;;;;5068734;28;20030;-85
2021/01/30 17:44:15;;;;;;;14.57;8.60;;;;;;;;;;5066229;28;20047;-83
2021/01/30 17:46:41;;;;;;;7.18;4.50;;;;;;;;;;5069650;28;20028;-84
2021/01/30 17:49:06;;;;;;;6.28;4.03;;;;;;;;;;5066621;28;20020;-82
2021/01/30 17:51:32;;;;;;;9.05;4.97;;;;;;;;;;5072763;28;20017;-84
2021/01/30 17:56:16;;;;;;;3.38;1.83;;;;;;;;;;5082542;28;20364;-82
2021/01/30 17:58:41;;;;;;;3.47;1.92;;;;;;;;;;5065810;28;20035;-82
2021/01/30 18:01:07;;;;;;;5.47;3.03;;;;;;;;;;5079337;28;20115;-82
2021/01/30 18:03:33;;;;;;;2.47;1.20;;;;;;;;;;5072300;28;20043;-82
2021/01/30 18:05:58;;;;;;;2.80;1.27;;;;;;;;;;5076632;28;20107;-81
2021/01/30 18:08:24;;;;;;;2.72;1.20;;;;;;;;;;5080822;28;20091;-83
2021/01/30 18:10:50;;;;;;;3.28;1.10;;;;;;;;;;5059970;28;20115;-84
2021/01/30 18:13:15;;;;;;;13.13;7.30;;;;;;;;;;5063724;28;20378;-83
2021/01/30 18:15:41;;;;;;;10.18;5.40;;;;;;;;;;5059339;28;20025;-81
2021/01/30 18:18:07;;;;;;;3.70;2.03;;;;;;;;;;5077428;28;20029;-82
2021/01/30 18:20:34;;;;;;;18.55;8.93;;;;;;;;;;5080689;28;20477;-83
2021/01/30 18:25:19;;;;;;;12.45;6.38;;;;;;;;;;5107402;27;20418;-82
2021/01/30 18:27:44;;;;;;;21.38;11.00;;;;;;;;;;5095741;28;20028;-82
2021/01/30 18:30:13;;;;;;;8.73;4.70;;;;;;;;;;5092396;28;20016;-82
2021/01/30 18:32:39;;;;;;;7.05;4.25;;;;;;;;;;5082258;28;20115;-82
2021/01/30 18:35:04;;;;;;;3.20;1.73;;;;;;;;;;5099315;28;20073;-82
2021/01/30 18:37:30;;;;;;;2.63;1.40;;;;;;;;;;5091297;28;20046;-82
2021/01/30 18:39:56;;;;;;;7.38;4.00;;;;;;;;;;5091280;28;20032;-82
2021/01/30 18:42:22;;;;;;;4.70;2.70;;;;;;;;;;5093574;28;20110;-83
2021/01/30 18:44:48;;;;;;;8.80;4.50;;;;;;;;;;5095237;28;20119;-83
2021/01/30 18:47:13;;;;;;;14.18;7.78;;;;;;;;;;5100424;28;20031;-83
2021/01/30 18:49:39;;;;;;;6.68;3.38;;;;;;;;;;5106447;28;20020;-82
2021/01/30 18:52:05;;;;;;;4.38;2.92;;;;;;;;;;5083950;28;20027;-84
2021/01/30 18:54:30;;;;;;;5.15;2.65;;;;;;;;;;5096662;28;20029;-83
2021/01/30 18:56:56;;;;;;;5.95;3.08;;;;;;;;;;5100067;28;20103;-85
2021/01/30 18:59:22;;;;;;;5.65;2.85;;;;;;;;;;5104156;28;20075;-82
2021/01/30 19:01:47;;;;;;;4.05;2.00;;;;;;;;;;5110626;28;20039;-83
2021/01/30 19:04:13;;;;;;;3.35;1.70;;;;;;;;;;5108052;28;20051;-83
2021/01/30 19:06:38;;;;;;;13.00;6.88;;;;;;;;;;5103796;28;20088;-82
2021/01/30 19:09:04;;;;;;;8.70;4.55;;;;;;;;;;5115318;28;20715;-80
2021/01/30 19:11:34;;;;;;;6.38;3.20;;;;;;;;;;5099958;28;20028;-81
2021/01/30 19:14:00;;;;;;;2.80;1.40;;;;;;;;;;5099191;28;20031;-82
2021/01/30 19:16:26;;;;;;;1.80;0.95;;;;;;;;;;5095680;28;20419;-81
2021/01/30 19:18:52;;;;;;;1.73;0.77;;;;;;;;;;5102255;28;20015;-82
2021/01/30 19:21:18;;;;;;;1.92;1.00;;;;;;;;;;5105177;28;20047;-81
2021/01/30 19:23:43;;;;;;;2.20;1.10;;;;;;;;;;5107533;28;20036;-80
2021/01/30 19:26:09;;;;;;;6.07;2.80;;;;;;;;;;5107201;28;20039;-81
2021/01/30 19:28:34;;;;;;;6.25;2.33;;;;;;;;;;5107541;28;20392;-81
2021/01/30 19:31:00;;;;;;;5.57;2.30;;;;;;;;;;5101378;28;20030;-81
2021/01/30 19:33:26;;;;;;;4.22;1.90;;;;;;;;;;5101358;28;20106;-82
2021/01/30 19:35:51;;;;;;;10.00;4.28;;;;;;;;;;5094763;28;20124;-81
2021/01/30 19:38:18;;;;;;;8.15;4.18;;;;;;;;;;5091809;28;20174;-82
2021/01/30 19:40:44;;;;;;;8.43;3.28;;;;;;;;;;5085712;28;20032;-82
2021/01/30 19:43:11;;;;;;;14.45;7.25;;;;;;;;;;5088525;28;20029;-81
2021/01/30 19:45:37;;;;;;;7.10;3.65;;;;;;;;;;5085140;28;20027;-81
2021/01/30 19:48:02;;;;;;;10.63;4.70;;;;;;;;;;5092712;28;20016;-81
2021/01/30 19:50:30;;;;;;;13.48;7.03;;;;;;;;;;5087931;28;20056;-81
2021/01/30 19:52:56;;;;;;;3.15;1.75;;;;;;;;;;5081990;28;20628;-81
2021/01/30 19:55:21;;;;;;;3.35;2.17;;;;;;;;;;5087082;28;20742;-81
2021/01/30 19:57:47;;;;;;;2.20;1.00;;;;;;;;;;5081218;28;20024;-81
2021/01/30 20:00:13;;;;;;;1.83;0.80;;;;;;;;;;5078506;28;20400;-82
2021/01/30 20:02:39;;;;;;;2.03;1.00;;;;;;;;;;5077181;28;20124;-82
2021/01/30 20:05:05;;;;;;;3.63;1.73;;;;;;;;;;5079303;28;20021;-80
2021/01/30 20:07:31;;;;;;;1.40;0.73;;;;;;;;;;5079627;28;20055;-81
2021/01/30 20:09:57;;;;;;;1.52;0.77;;;;;;;;;;5081335;28;20020;-81
2021/01/30 20:12:22;;;;;;;2.05;0.85;;;;;;;;;;5087445;28;20358;-82
2021/01/30 20:14:50;;;;;;;2.90;1.60;;;;;;;;;;5079446;28;20471;-82
2021/01/30 20:17:16;;;;;;;2.92;1.88;;;;;;;;;;5081193;28;20028;-82
2021/01/30 20:19:42;;;;;;;5.57;2.97;;;;;;;;;;5088539;28;20012;-82
2021/01/30 20:24:26;;;;;;;9.35;5.40;;;;;;;;;;5066036;28;20434;-82
2021/01/30 20:26:52;;;;;;;6.55;3.10;;;;;;;;;;5063274;28;20032;-81
2021/01/30 20:29:18;;;;;;;4.82;2.53;;;;;;;;;;5061300;28;20120;-81
2021/01/30 20:31:44;;;;;;;38.30;16.58;;;;;;;;;;5059310;28;20056;-82
2021/01/30 20:34:09;;;;;;;5.93;2.83;;;;;;;;;;5054405;28;20033;-80
2021/01/30 20:36:35;;;;;;;2.95;1.25;;;;;;;;;;5055557;28;20024;-82
2021/01/30 20:39:01;;;;;;;35.03;14.40;;;;;;;;;;5051800;28;20018;-81
2021/01/30 20:41:26;;;;;;;44.22;20.58;;;;;;;;;;5055051;28;20108;-82
2021/01/30 20:43:52;;;;;;;4.07;1.95;;;;;;;;;;5058782;28;20116;-81
2021/01/30 20:46:18;;;;;;;26.85;13.95;;;;;;;;;;5057995;28;20063;-81
2021/01/30 20:48:43;;;;;;;18.65;13.93;;;;;;;;;;5061596;28;20003;-81